sensor_id;sensor_type;location;lat;lon;timestamp;pressure;altitude;pressure_sealevel;temperature;humidity
71697;BME280;68167;59.120;37.898;2023-04-12T00:01:56;100104.38;;;5.61;40.08
71697;BME280;68167;59.120;37.898;2023-04-12T00:04:23;100095.88;;;5.59;39.87
71697;BME280;68167;59.120;37.898;2023-04-12T00:06:54;100091.50;;;5.46;39.78
71697;BME280;68167;59.120;37.898;2023-04-12T00:09:20;100038.56;;;5.16;39.96
71697;BME280;68167;59.120;37.898;2023-04-12T00:11:47;100073.72;;;5.35;39.93
71697;BME280;68167;59.120;37.898;2023-04-12T00:14:13;99937.66;;;4.46;39.63
71697;BME280;68167;59.120;37.898;2023-04-12T00:16:39;100093.38;;;5.39;40.38
71697;BME280;68167;59.120;37.898;2023-04-12T00:19:06;100095.81;;;5.41;40.29
71697;BME280;68167;59.120;37.898;2023-04-12T00:21:33;100087.72;;;5.36;40.32
71697;BME280;68167;59.120;37.898;2023-04-12T00:24:00;100077.25;;;5.22;40.31
71697;BME280;68167;59.120;37.898;2023-04-12T00:26:27;100077.47;;;5.21;40.63
71697;BME280;68167;59.120;37.898;2023-04-12T00:28:53;100081.50;;;5.23;40.78
71697;BME280;68167;59.120;37.898;2023-04-12T00:31:20;100088.03;;;5.21;40.66
71697;BME280;68167;59.120;37.898;2023-04-12T00:33:46;100102.41;;;5.25;40.59
71697;BME280;68167;59.120;37.898;2023-04-12T00:36:13;100068.88;;;5.07;40.74
71697;BME280;68167;59.120;37.898;2023-04-12T00:38:41;100108.94;;;5.22;41.10
71697;BME280;68167;59.120;37.898;2023-04-12T00:41:08;100090.53;;;5.16;41.13
71697;BME280;68167;59.120;37.898;2023-04-12T00:43:34;100100.41;;;5.20;41.07
71697;BME280;68167;59.120;37.898;2023-04-12T00:46:01;100101.28;;;5.14;41.25
71697;BME280;68167;59.120;37.898;2023-04-12T00:48:27;100091.81;;;5.07;41.51
71697;BME280;68167;59.120;37.898;2023-04-12T00:50:56;100029.34;;;4.69;41.50
71697;BME280;68167;59.120;37.898;2023-04-12T00:53:22;100055.41;;;4.84;41.72
71697;BME280;68167;59.120;37.898;2023-04-12T00:55:49;100071.63;;;4.87;41.67
71697;BME280;68167;59.120;37.898;2023-04-12T00:58:17;100055.66;;;4.76;41.79
71697;BME280;68167;59.120;37.898;2023-04-12T01:00:43;100076.31;;;4.85;42.02
71697;BME280;68167;59.120;37.898;2023-04-12T01:03:16;100095.13;;;4.95;42.21
71697;BME280;68167;59.120;37.898;2023-04-12T01:06:10;100104.06;;;4.94;41.41
71697;BME280;68167;59.120;37.898;2023-04-12T01:11:38;100054.53;;;4.58;42.02
71697;BME280;68167;59.120;37.898;2023-04-12T01:14:18;100088.72;;;4.78;42.14
71697;BME280;68167;59.120;37.898;2023-04-12T01:16:52;100038.59;;;4.47;41.79
71697;BME280;68167;59.120;37.898;2023-04-12T01:19:54;100084.88;;;4.74;41.59
71697;BME280;68167;59.120;37.898;2023-04-12T01:22:44;100088.53;;;4.73;42.07
71697;BME280;68167;59.120;37.898;2023-04-12T01:25:56;100087.34;;;4.69;42.06
71697;BME280;68167;59.120;37.898;2023-04-12T01:28:30;100032.38;;;4.35;42.22
71697;BME280;68167;59.120;37.898;2023-04-12T01:31:00;100083.31;;;4.60;42.65
71697;BME280;68167;59.120;37.898;2023-04-12T01:33:28;100060.28;;;4.49;43.23
71697;BME280;68167;59.120;37.898;2023-04-12T01:36:00;100067.56;;;4.53;42.70
71697;BME280;68167;59.120;37.898;2023-04-12T01:38:28;100034.22;;;4.27;42.99
71697;BME280;68167;59.120;37.898;2023-04-12T01:40:55;100074.50;;;4.48;43.09
71697;BME280;68167;59.120;37.898;2023-04-12T01:43:22;100065.00;;;4.40;43.33
71697;BME280;68167;59.120;37.898;2023-04-12T01:45:48;100085.84;;;4.48;43.30
71697;BME280;68167;59.120;37.898;2023-04-12T01:48:14;100036.09;;;4.20;43.25
71697;BME280;68167;59.120;37.898;2023-04-12T01:53:13;100037.53;;;4.10;44.20
71697;BME280;68167;59.120;37.898;2023-04-12T01:55:43;100073.72;;;4.34;43.61
71697;BME280;68167;59.120;37.898;2023-04-12T01:58:20;100076.34;;;4.41;43.41
71697;BME280;68167;59.120;37.898;2023-04-12T02:00:48;100076.78;;;4.31;44.30
71697;BME280;68167;59.120;37.898;2023-04-12T02:03:15;100084.28;;;4.34;44.59
71697;BME280;68167;59.120;37.898;2023-04-12T02:05:43;100070.91;;;4.29;44.32
71697;BME280;68167;59.120;37.898;2023-04-12T02:08:10;100072.94;;;4.27;44.02
71697;BME280;68167;59.120;37.898;2023-04-12T02:10:37;100064.84;;;4.22;44.29
71697;BME280;68167;59.120;37.898;2023-04-12T02:13:06;100037.38;;;3.98;44.63
71697;BME280;68167;59.120;37.898;2023-04-12T02:15:32;100067.13;;;4.12;44.73
71697;BME280;68167;59.120;37.898;2023-04-12T02:17:59;100071.97;;;4.15;44.81
71697;BME280;68167;59.120;37.898;2023-04-12T02:20:27;100063.06;;;4.09;44.68
71697;BME280;68167;59.120;37.898;2023-04-12T02:22:53;100009.47;;;3.84;45.00
71697;BME280;68167;59.120;37.898;2023-04-12T02:25:20;100074.00;;;4.13;45.10
71697;BME280;68167;59.120;37.898;2023-04-12T02:27:46;100064.28;;;4.07;44.70
71697;BME280;68167;59.120;37.898;2023-04-12T02:30:14;100078.47;;;4.12;45.29
71697;BME280;68167;59.120;37.898;2023-04-12T02:32:44;100084.34;;;4.08;45.52
71697;BME280;68167;59.120;37.898;2023-04-12T02:35:16;100066.53;;;3.96;45.16
71697;BME280;68167;59.120;37.898;2023-04-12T02:37:45;100071.81;;;3.96;45.70
71697;BME280;68167;59.120;37.898;2023-04-12T02:40:12;100043.72;;;3.77;45.59
71697;BME280;68167;59.120;37.898;2023-04-12T02:42:41;100079.50;;;4.05;45.69
71697;BME280;68167;59.120;37.898;2023-04-12T02:45:10;100075.84;;;3.99;45.86
71697;BME280;68167;59.120;37.898;2023-04-12T02:47:37;99912.09;;;3.00;46.02
71697;BME280;68167;59.120;37.898;2023-04-12T02:50:06;99995.59;;;3.44;45.78
71697;BME280;68167;59.120;37.898;2023-04-12T02:52:41;100076.47;;;3.94;45.74
71697;BME280;68167;59.120;37.898;2023-04-12T02:55:09;100078.09;;;3.95;46.31
71697;BME280;68167;59.120;37.898;2023-04-12T02:57:36;100046.97;;;3.73;46.07
71697;BME280;68167;59.120;37.898;2023-04-12T03:00:05;100076.06;;;3.91;46.35
71697;BME280;68167;59.120;37.898;2023-04-12T03:02:41;100086.19;;;3.94;46.75
71697;BME280;68167;59.120;37.898;2023-04-12T03:05:13;100067.41;;;3.84;46.61
71697;BME280;68167;59.120;37.898;2023-04-12T03:07:42;100033.03;;;3.59;46.47
71697;BME280;68167;59.120;37.898;2023-04-12T03:10:09;100080.97;;;3.87;46.52
71697;BME280;68167;59.120;37.898;2023-04-12T03:12:44;100084.22;;;3.83;46.62
71697;BME280;68167;59.120;37.898;2023-04-12T03:15:16;100087.25;;;3.86;47.04
71697;BME280;68167;59.120;37.898;2023-04-12T03:17:47;100043.16;;;3.55;47.21
71697;BME280;68167;59.120;37.898;2023-04-12T03:20:16;100069.84;;;3.72;47.15
71697;BME280;68167;59.120;37.898;2023-04-12T03:22:49;100091.72;;;3.79;47.16
71697;BME280;68167;59.120;37.898;2023-04-12T03:25:16;100085.22;;;3.82;47.84
71697;BME280;68167;59.120;37.898;2023-04-12T03:27:52;100082.19;;;3.85;47.46
71697;BME280;68167;59.120;37.898;2023-04-12T03:30:21;100080.38;;;3.79;47.66
71697;BME280;68167;59.120;37.898;2023-04-12T03:32:49;100080.97;;;3.81;47.85
71697;BME280;68167;59.120;37.898;2023-04-12T03:35:16;100089.69;;;3.88;47.70
71697;BME280;68167;59.120;37.898;2023-04-12T03:37:42;100091.88;;;3.97;47.83
71697;BME280;68167;59.120;37.898;2023-04-12T03:40:11;100085.19;;;3.95;47.88
71697;BME280;68167;59.120;37.898;2023-04-12T03:42:40;100075.25;;;3.90;47.89
71697;BME280;68167;59.120;37.898;2023-04-12T03:45:11;100093.28;;;4.00;48.06
71697;BME280;68167;59.120;37.898;2023-04-12T03:47:40;100083.56;;;4.01;47.81
71697;BME280;68167;59.120;37.898;2023-04-12T03:50:07;100088.00;;;4.07;48.41
71697;BME280;68167;59.120;37.898;2023-04-12T03:52:36;100087.16;;;4.13;47.86
71697;BME280;68167;59.120;37.898;2023-04-12T03:55:06;100096.88;;;4.19;48.27
71697;BME280;68167;59.120;37.898;2023-04-12T03:57:32;100084.75;;;4.11;48.14
71697;BME280;68167;59.120;37.898;2023-04-12T04:00:00;100093.41;;;4.25;48.36
71697;BME280;68167;59.120;37.898;2023-04-12T04:02:44;100071.97;;;4.15;47.89
71697;BME280;68167;59.120;37.898;2023-04-12T04:05:13;100088.97;;;4.19;48.32
71697;BME280;68167;59.120;37.898;2023-04-12T04:07:43;100092.19;;;4.27;48.12
71697;BME280;68167;59.120;37.898;2023-04-12T04:10:10;100049.91;;;4.09;48.05
71697;BME280;68167;59.120;37.898;2023-04-12T04:12:39;100095.19;;;4.38;48.32
71697;BME280;68167;59.120;37.898;2023-04-12T04:15:10;100093.53;;;4.50;48.16
71697;BME280;68167;59.120;37.898;2023-04-12T04:17:36;100082.81;;;4.45;48.40
71697;BME280;68167;59.120;37.898;2023-04-12T04:20:04;100067.59;;;4.47;48.19
71697;BME280;68167;59.120;37.898;2023-04-12T04:22:33;100091.59;;;4.70;47.87
71697;BME280;68167;59.120;37.898;2023-04-12T04:25:01;100071.34;;;4.64;48.09
71697;BME280;68167;59.120;37.898;2023-04-12T04:27:31;100019.19;;;4.35;47.56
71697;BME280;68167;59.120;37.898;2023-04-12T04:30:00;100096.56;;;4.91;48.24
71697;BME280;68167;59.120;37.898;2023-04-12T04:32:28;100051.84;;;4.72;48.24
71697;BME280;68167;59.120;37.898;2023-04-12T04:34:56;100071.81;;;4.92;47.66
71697;BME280;68167;59.120;37.898;2023-04-12T04:37:36;100048.50;;;4.89;48.20
71697;BME280;68167;59.120;37.898;2023-04-12T04:40:04;100056.31;;;5.03;47.85
71697;BME280;68167;59.120;37.898;2023-04-12T04:42:38;100079.47;;;5.25;47.80
71697;BME280;68167;59.120;37.898;2023-04-12T04:45:05;100088.03;;;5.46;47.60
71697;BME280;68167;59.120;37.898;2023-04-12T04:47:39;100087.56;;;5.55;47.48
71697;BME280;68167;59.120;37.898;2023-04-12T04:50:06;100047.47;;;5.40;47.58
71697;BME280;68167;59.120;37.898;2023-04-12T04:52:32;100065.19;;;5.58;47.78
71697;BME280;68167;59.120;37.898;2023-04-12T04:55:05;100089.88;;;5.88;47.63
71697;BME280;68167;59.120;37.898;2023-04-12T04:57:35;100084.72;;;6.00;47.60
71697;BME280;68167;59.120;37.898;2023-04-12T05:00:03;100082.00;;;6.07;47.32
71697;BME280;68167;59.120;37.898;2023-04-12T05:02:42;100089.72;;;6.26;46.89
71697;BME280;68167;59.120;37.898;2023-04-12T05:05:11;100081.94;;;6.32;47.11
71697;BME280;68167;59.120;37.898;2023-04-12T05:07:48;100041.63;;;6.18;46.36
71697;BME280;68167;59.120;37.898;2023-04-12T05:10:15;100081.81;;;6.56;46.29
71697;BME280;68167;59.120;37.898;2023-04-12T05:12:42;100073.72;;;6.70;45.76
71697;BME280;68167;59.120;37.898;2023-04-12T05:15:09;100088.84;;;6.81;46.28
71697;BME280;68167;59.120;37.898;2023-04-12T05:17:36;100078.06;;;6.94;46.29
71697;BME280;68167;59.120;37.898;2023-04-12T05:20:02;100083.97;;;7.08;46.21
71697;BME280;68167;59.120;37.898;2023-04-12T05:22:33;100088.16;;;7.27;45.97
71697;BME280;68167;59.120;37.898;2023-04-12T05:25:00;100092.09;;;7.36;45.71
71697;BME280;68167;59.120;37.898;2023-04-12T05:27:30;100096.13;;;7.50;45.58
71697;BME280;68167;59.120;37.898;2023-04-12T05:29:58;100073.09;;;7.51;45.34
71697;BME280;68167;59.120;37.898;2023-04-12T05:32:25;100076.00;;;7.61;44.91
71697;BME280;68167;59.120;37.898;2023-04-12T05:34:52;100093.03;;;7.88;44.52
71697;BME280;68167;59.120;37.898;2023-04-12T05:37:20;100103.41;;;8.02;44.76
71697;BME280;68167;59.120;37.898;2023-04-12T05:39:47;100085.63;;;8.14;44.04
71697;BME280;68167;59.120;37.898;2023-04-12T05:42:17;100081.25;;;8.19;44.27
71697;BME280;68167;59.120;37.898;2023-04-12T05:44:43;100055.09;;;8.11;43.33
71697;BME280;68167;59.120;37.898;2023-04-12T05:47:12;100056.34;;;8.20;42.89
71697;BME280;68167;59.120;37.898;2023-04-12T05:49:39;100096.84;;;8.56;43.16
71697;BME280;68167;59.120;37.898;2023-04-12T05:52:08;100099.94;;;8.65;43.08
71697;BME280;68167;59.120;37.898;2023-04-12T05:54:35;100037.41;;;8.40;42.95
71697;BME280;68167;59.120;37.898;2023-04-12T05:57:01;100083.75;;;8.78;41.93
71697;BME280;68167;59.120;37.898;2023-04-12T05:59:29;100089.72;;;8.85;42.01
71697;BME280;68167;59.120;37.898;2023-04-12T06:01:56;100074.84;;;8.84;42.02
71697;BME280;68167;59.120;37.898;2023-04-12T06:04:24;100087.72;;;8.92;41.62
71697;BME280;68167;59.120;37.898;2023-04-12T06:06:51;100085.72;;;8.99;41.66
71697;BME280;68167;59.120;37.898;2023-04-12T06:09:17;100079.13;;;9.02;41.37
71697;BME280;68167;59.120;37.898;2023-04-12T06:11:44;100087.00;;;9.13;41.80
71697;BME280;68167;59.120;37.898;2023-04-12T06:14:10;100048.47;;;8.94;41.31
71697;BME280;68167;59.120;37.898;2023-04-12T06:16:37;100088.25;;;9.22;40.83
71697;BME280;68167;59.120;37.898;2023-04-12T06:19:03;100044.63;;;9.02;40.91
71697;BME280;68167;59.120;37.898;2023-04-12T06:21:31;100090.50;;;9.31;40.93
71697;BME280;68167;59.120;37.898;2023-04-12T06:23:58;100080.69;;;9.31;40.70
71697;BME280;68167;59.120;37.898;2023-04-12T06:26:24;100051.28;;;9.21;40.77
71697;BME280;68167;59.120;37.898;2023-04-12T06:28:51;100093.00;;;9.54;40.62
71697;BME280;68167;59.120;37.898;2023-04-12T06:31:17;100090.75;;;9.63;40.94
71697;BME280;68167;59.120;37.898;2023-04-12T06:33:44;100048.81;;;9.48;40.27
71697;BME280;68167;59.120;37.898;2023-04-12T06:36:11;100107.88;;;9.88;40.57
71697;BME280;68167;59.120;37.898;2023-04-12T06:38:37;100100.44;;;9.90;39.95
71697;BME280;68167;59.120;37.898;2023-04-12T06:41:05;100096.31;;;10.00;40.16
71697;BME280;68167;59.120;37.898;2023-04-12T06:43:31;100110.81;;;10.09;39.95
71697;BME280;68167;59.120;37.898;2023-04-12T06:45:57;100108.31;;;10.19;40.25
71697;BME280;68167;59.120;37.898;2023-04-12T06:48:24;100048.47;;;10.00;40.44
71697;BME280;68167;59.120;37.898;2023-04-12T06:50:51;100078.03;;;10.20;39.21
71697;BME280;68167;59.120;37.898;2023-04-12T06:53:17;100097.69;;;10.41;39.77
71697;BME280;68167;59.120;37.898;2023-04-12T06:55:43;100093.47;;;10.45;39.53
71697;BME280;68167;59.120;37.898;2023-04-12T06:58:10;100116.88;;;10.65;39.26
71697;BME280;68167;59.120;37.898;2023-04-12T07:00:36;100104.91;;;10.67;39.17
71697;BME280;68167;59.120;37.898;2023-04-12T07:03:02;100106.59;;;10.73;38.90
71697;BME280;68167;59.120;37.898;2023-04-12T07:05:29;100111.34;;;10.93;39.34
71697;BME280;68167;59.120;37.898;2023-04-12T07:07:55;100111.97;;;11.05;38.84
71697;BME280;68167;59.120;37.898;2023-04-12T07:10:21;100076.09;;;10.86;38.24
71697;BME280;68167;59.120;37.898;2023-04-12T07:12:48;100118.50;;;11.19;37.85
71697;BME280;68167;59.120;37.898;2023-04-12T07:15:14;100065.31;;;10.98;38.15
71697;BME280;68167;59.120;37.898;2023-04-12T07:17:40;100114.88;;;11.31;37.61
71697;BME280;68167;59.120;37.898;2023-04-12T07:20:07;100120.03;;;11.42;38.14
71697;BME280;68167;59.120;37.898;2023-04-12T07:22:33;100115.06;;;11.51;37.65
71697;BME280;68167;59.120;37.898;2023-04-12T07:25:00;100090.16;;;11.40;37.47
71697;BME280;68167;59.120;37.898;2023-04-12T07:27:26;100110.59;;;11.62;37.22
71697;BME280;68167;59.120;37.898;2023-04-12T07:29:52;100109.59;;;11.73;37.54
71697;BME280;68167;59.120;37.898;2023-04-12T07:32:19;100098.13;;;11.72;37.17
71697;BME280;68167;59.120;37.898;2023-04-12T07:34:45;100116.94;;;11.87;37.08
71697;BME280;68167;59.120;37.898;2023-04-12T07:37:11;100113.28;;;11.99;37.05
71697;BME280;68167;59.120;37.898;2023-04-12T07:39:38;100103.94;;;12.01;36.64
71697;BME280;68167;59.120;37.898;2023-04-12T07:42:05;100106.44;;;12.13;36.49
71697;BME280;68167;59.120;37.898;2023-04-12T07:44:31;100086.44;;;12.15;36.23
71697;BME280;68167;59.120;37.898;2023-04-12T07:46:58;100061.56;;;12.10;36.08
71697;BME280;68167;59.120;37.898;2023-04-12T07:49:25;100076.88;;;12.30;35.80
71697;BME280;68167;59.120;37.898;2023-04-12T07:51:51;100112.22;;;12.57;35.74
71697;BME280;68167;59.120;37.898;2023-04-12T07:54:17;100105.00;;;12.58;35.45
71697;BME280;68167;59.120;37.898;2023-04-12T07:56:59;100097.25;;;12.56;35.68
71697;BME280;68167;59.120;37.898;2023-04-12T07:59:26;100077.75;;;12.50;35.25
71697;BME280;68167;59.120;37.898;2023-04-12T08:01:53;100108.28;;;12.80;34.92
71697;BME280;68167;59.120;37.898;2023-04-12T08:04:19;100109.41;;;12.94;34.78
71697;BME280;68167;59.120;37.898;2023-04-12T08:06:46;100119.03;;;13.05;34.37
71697;BME280;68167;59.120;37.898;2023-04-12T08:09:12;100116.34;;;13.10;34.17
71697;BME280;68167;59.120;37.898;2023-04-12T08:11:38;100109.97;;;13.16;34.20
71697;BME280;68167;59.120;37.898;2023-04-12T08:14:05;100114.28;;;13.28;33.77
71697;BME280;68167;59.120;37.898;2023-04-12T08:16:31;100106.53;;;13.26;34.05
71697;BME280;68167;59.120;37.898;2023-04-12T08:18:58;100124.72;;;13.44;33.68
71697;BME280;68167;59.120;37.898;2023-04-12T08:21:24;100121.53;;;13.52;33.92
71697;BME280;68167;59.120;37.898;2023-04-12T08:23:52;100090.75;;;13.40;33.77
71697;BME280;68167;59.120;37.898;2023-04-12T08:26:19;100115.91;;;13.64;33.81
71697;BME280;68167;59.120;37.898;2023-04-12T08:28:46;100117.19;;;13.77;33.87
71697;BME280;68167;59.120;37.898;2023-04-12T08:31:16;100106.50;;;13.87;33.63
71697;BME280;68167;59.120;37.898;2023-04-12T08:33:42;100072.78;;;13.71;33.42
71697;BME280;68167;59.120;37.898;2023-04-12T08:36:09;100122.53;;;14.02;33.12
71697;BME280;68167;59.120;37.898;2023-04-12T08:38:36;100100.31;;;14.02;33.19
71697;BME280;68167;59.120;37.898;2023-04-12T08:41:03;100108.59;;;14.10;32.81
71697;BME280;68167;59.120;37.898;2023-04-12T08:43:32;100111.50;;;14.24;33.03
71697;BME280;68167;59.120;37.898;2023-04-12T08:46:00;100104.28;;;14.25;33.02
71697;BME280;68167;59.120;37.898;2023-04-12T08:48:27;100112.22;;;14.40;32.89
71697;BME280;68167;59.120;37.898;2023-04-12T08:50:55;100055.84;;;14.16;32.59
71697;BME280;68167;59.120;37.898;2023-04-12T08:53:22;100100.72;;;14.44;32.24
71697;BME280;68167;59.120;37.898;2023-04-12T08:55:48;100105.25;;;14.54;31.91
71697;BME280;68167;59.120;37.898;2023-04-12T08:58:15;100083.31;;;14.37;31.69
71697;BME280;68167;59.120;37.898;2023-04-12T09:00:43;100103.06;;;14.61;31.37
71697;BME280;68167;59.120;37.898;2023-04-12T09:03:10;100102.78;;;14.68;31.54
71697;BME280;68167;59.120;37.898;2023-04-12T09:05:36;100113.69;;;14.81;31.78
71697;BME280;68167;59.120;37.898;2023-04-12T09:08:03;100073.59;;;14.61;31.78
71697;BME280;68167;59.120;37.898;2023-04-12T09:10:32;100069.03;;;14.62;31.01
71697;BME280;68167;59.120;37.898;2023-04-12T09:12:59;100113.59;;;14.97;31.51
71697;BME280;68167;59.120;37.898;2023-04-12T09:15:26;100111.97;;;14.96;30.96
71697;BME280;68167;59.120;37.898;2023-04-12T09:18:09;100059.03;;;14.77;31.51
71697;BME280;68167;59.120;37.898;2023-04-12T09:20:38;100099.84;;;15.08;30.65
71697;BME280;68167;59.120;37.898;2023-04-12T09:23:22;100105.13;;;15.19;30.85
71697;BME280;68167;59.120;37.898;2023-04-12T09:25:51;100067.66;;;15.08;30.76
71697;BME280;68167;59.120;37.898;2023-04-12T09:28:23;100082.03;;;15.23;30.78
71697;BME280;68167;59.120;37.898;2023-04-12T09:30:52;100098.03;;;15.38;30.25
71697;BME280;68167;59.120;37.898;2023-04-12T09:33:20;100103.00;;;15.55;30.76
71697;BME280;68167;59.120;37.898;2023-04-12T09:35:47;100092.16;;;15.65;29.93
71697;BME280;68167;59.120;37.898;2023-04-12T09:38:15;100060.91;;;15.50;29.50
71697;BME280;68167;59.120;37.898;2023-04-12T09:40:41;100080.06;;;15.67;30.23
71697;BME280;68167;59.120;37.898;2023-04-12T09:43:11;100052.72;;;15.65;29.61
71697;BME280;68167;59.120;37.898;2023-04-12T09:45:40;100081.66;;;15.97;29.56
71697;BME280;68167;59.120;37.898;2023-04-12T09:48:17;100080.81;;;16.02;29.54
71697;BME280;68167;59.120;37.898;2023-04-12T09:50:45;100090.88;;;16.15;29.10
71697;BME280;68167;59.120;37.898;2023-04-12T09:53:15;100090.53;;;16.22;29.11
71697;BME280;68167;59.120;37.898;2023-04-12T09:55:44;100068.41;;;16.06;28.93
71697;BME280;68167;59.120;37.898;2023-04-12T09:58:12;100081.22;;;16.14;28.79
71697;BME280;68167;59.120;37.898;2023-04-12T10:00:44;100077.16;;;16.17;28.55
71697;BME280;68167;59.120;37.898;2023-04-12T10:03:12;100073.38;;;16.18;28.68
71697;BME280;68167;59.120;37.898;2023-04-12T10:05:39;100081.00;;;16.29;28.25
71697;BME280;68167;59.120;37.898;2023-04-12T10:08:10;100065.97;;;16.28;28.33
71697;BME280;68167;59.120;37.898;2023-04-12T10:10:37;100050.00;;;16.18;28.14
71697;BME280;68167;59.120;37.898;2023-04-12T10:13:04;100077.13;;;16.40;27.99
71697;BME280;68167;59.120;37.898;2023-04-12T10:15:33;100088.38;;;16.42;27.85
71697;BME280;68167;59.120;37.898;2023-04-12T10:18:05;100074.88;;;16.47;27.61
71697;BME280;68167;59.120;37.898;2023-04-12T10:20:32;100079.69;;;16.51;27.59
71697;BME280;68167;59.120;37.898;2023-04-12T10:23:04;100034.91;;;16.22;27.55
71697;BME280;68167;59.120;37.898;2023-04-12T10:25:31;100081.56;;;16.50;27.62
71697;BME280;68167;59.120;37.898;2023-04-12T10:28:13;100073.84;;;16.67;27.53
71697;BME280;68167;59.120;37.898;2023-04-12T10:30:40;100065.00;;;16.86;27.71
71697;BME280;68167;59.120;37.898;2023-04-12T10:33:12;100061.03;;;16.97;27.04
71697;BME280;68167;59.120;37.898;2023-04-12T10:35:55;100069.22;;;17.24;27.68
71697;BME280;68167;59.120;37.898;2023-04-12T10:38:23;100066.09;;;17.36;27.17
71697;BME280;68167;59.120;37.898;2023-04-12T10:43:36;100043.97;;;17.39;26.90
71697;BME280;68167;59.120;37.898;2023-04-12T10:46:03;100068.63;;;17.60;26.84
71697;BME280;68167;59.120;37.898;2023-04-12T10:48:32;100069.97;;;17.76;26.66
71697;BME280;68167;59.120;37.898;2023-04-12T10:56:39;100067.22;;;18.08;26.07
71697;BME280;68167;59.120;37.898;2023-04-12T10:59:13;100020.03;;;17.97;24.66
71697;BME280;68167;59.120;37.898;2023-04-12T11:02:08;100069.38;;;18.48;24.97
71697;BME280;68167;59.120;37.898;2023-04-12T11:04:36;100011.28;;;18.28;23.09
71697;BME280;68167;59.120;37.898;2023-04-12T11:07:11;100056.19;;;18.73;22.78
71697;BME280;68167;59.120;37.898;2023-04-12T11:09:41;100061.94;;;19.03;22.49
71697;BME280;68167;59.120;37.898;2023-04-12T11:12:11;100052.56;;;19.23;22.76
71697;BME280;68167;59.120;37.898;2023-04-12T11:14:45;100060.50;;;19.41;22.80
71697;BME280;68167;59.120;37.898;2023-04-12T11:19:48;100071.22;;;19.33;20.91
71697;BME280;68167;59.120;37.898;2023-04-12T11:22:17;100032.56;;;19.24;21.12
71697;BME280;68167;59.120;37.898;2023-04-12T11:24:52;100031.22;;;19.35;21.29
71697;BME280;68167;59.120;37.898;2023-04-12T11:27:20;100059.44;;;19.51;20.72
71697;BME280;68167;59.120;37.898;2023-04-12T11:29:49;100045.19;;;19.59;20.55
71697;BME280;68167;59.120;37.898;2023-04-12T11:32:16;100037.63;;;19.70;20.68
71697;BME280;68167;59.120;37.898;2023-04-12T11:34:44;100044.47;;;19.76;19.72
71697;BME280;68167;59.120;37.898;2023-04-12T11:37:12;100043.13;;;19.96;20.12
71697;BME280;68167;59.120;37.898;2023-04-12T11:39:42;99972.59;;;19.66;19.33
71697;BME280;68167;59.120;37.898;2023-04-12T11:42:21;100021.38;;;20.01;20.11
71697;BME280;68167;59.120;37.898;2023-04-12T11:44:48;99995.47;;;20.00;19.84
71697;BME280;68167;59.120;37.898;2023-04-12T11:47:20;100027.31;;;20.37;19.31
71697;BME280;68167;59.120;37.898;2023-04-12T11:49:52;100011.63;;;20.48;18.96
71697;BME280;68167;59.120;37.898;2023-04-12T11:52:20;100028.34;;;20.59;19.05
71697;BME280;68167;59.120;37.898;2023-04-12T11:54:49;100032.16;;;20.49;18.96
71697;BME280;68167;59.120;37.898;2023-04-12T11:57:17;100024.03;;;20.41;18.30
71697;BME280;68167;59.120;37.898;2023-04-12T11:59:45;100013.00;;;20.28;19.15
71697;BME280;68167;59.120;37.898;2023-04-12T12:02:15;100041.63;;;20.29;18.94
71697;BME280;68167;59.120;37.898;2023-04-12T12:04:46;99949.41;;;19.65;18.84
71697;BME280;68167;59.120;37.898;2023-04-12T12:07:17;100038.25;;;20.15;19.16
71697;BME280;68167;59.120;37.898;2023-04-12T12:09:46;100020.88;;;19.99;18.80
71697;BME280;68167;59.120;37.898;2023-04-12T12:12:13;99982.53;;;19.49;19.02
71697;BME280;68167;59.120;37.898;2023-04-12T12:14:42;99979.66;;;19.45;19.03
71697;BME280;68167;59.120;37.898;2023-04-12T12:17:10;100037.25;;;19.94;19.08
71697;BME280;68167;59.120;37.898;2023-04-12T12:19:41;99937.56;;;19.84;19.05
71697;BME280;68167;59.120;37.898;2023-04-12T12:22:18;100046.34;;;20.63;18.92
71697;BME280;68167;59.120;37.898;2023-04-12T12:24:56;100005.91;;;20.76;18.32
71697;BME280;68167;59.120;37.898;2023-04-12T12:29:53;99970.91;;;20.62;18.61
71697;BME280;68167;59.120;37.898;2023-04-12T12:32:21;100017.50;;;20.85;18.79
71697;BME280;68167;59.120;37.898;2023-04-12T12:34:53;100013.88;;;20.63;18.48
71697;BME280;68167;59.120;37.898;2023-04-12T12:37:22;99978.16;;;20.35;18.59
71697;BME280;68167;59.120;37.898;2023-04-12T12:40:09;99963.09;;;20.43;18.83
71697;BME280;68167;59.120;37.898;2023-04-12T12:42:53;99975.50;;;20.61;19.14
71697;BME280;68167;59.120;37.898;2023-04-12T12:45:25;100003.66;;;20.95;19.32
71697;BME280;68167;59.120;37.898;2023-04-12T12:47:53;100001.56;;;21.18;19.40
71697;BME280;68167;59.120;37.898;2023-04-12T12:50:23;99996.03;;;21.61;19.52
71697;BME280;68167;59.120;37.898;2023-04-12T12:52:51;99946.69;;;21.76;18.93
71697;BME280;68167;59.120;37.898;2023-04-12T12:55:18;99990.78;;;22.44;18.64
71697;BME280;68167;59.120;37.898;2023-04-12T12:57:47;99992.59;;;22.61;18.22
71697;BME280;68167;59.120;37.898;2023-04-12T13:00:15;99954.19;;;22.29;17.75
71697;BME280;68167;59.120;37.898;2023-04-12T13:02:42;99988.94;;;22.36;18.11
71697;BME280;68167;59.120;37.898;2023-04-12T13:05:09;99987.22;;;22.52;18.15
71697;BME280;68167;59.120;37.898;2023-04-12T13:07:37;99987.88;;;22.70;17.46
71697;BME280;68167;59.120;37.898;2023-04-12T13:10:04;99952.66;;;22.61;17.71
71697;BME280;68167;59.120;37.898;2023-04-12T13:12:31;99943.59;;;22.57;17.50
71697;BME280;68167;59.120;37.898;2023-04-12T13:14:58;99982.50;;;22.82;17.38